createdAt,value
2022-09-15T00:01:50.495Z,99375.66
2022-09-15T00:04:51.886Z,99378.09
2022-09-15T00:07:53.252Z,99372.75
2022-09-15T00:10:58.373Z,99364.28
2022-09-15T00:14:01.605Z,99367.34
2022-09-15T00:17:03.349Z,99371.59
2022-09-15T00:20:06.488Z,99369.88
2022-09-15T00:23:08.940Z,99365.63
2022-09-15T00:26:12.659Z,99361.88
2022-09-15T00:29:14.024Z,99364.34
2022-09-15T00:32:15.429Z,99356.88
2022-09-15T00:35:17.537Z,99362.44
2022-09-15T00:38:20.153Z,99358.31
2022-09-15T00:41:24.136Z,99355.69
2022-09-15T00:44:25.436Z,99357.31
2022-09-15T00:47:32.695Z,99373.75
2022-09-15T00:50:35.993Z,99366.56
2022-09-15T00:53:37.758Z,99367.47
2022-09-15T00:56:42.705Z,99358.69
2022-09-15T00:59:45.533Z,99366.38
2022-09-15T01:02:49.245Z,99362.28
2022-09-15T01:06:01.462Z,99364.09
2022-09-15T01:09:07.589Z,99353.81
2022-09-15T01:12:09.072Z,99350.28
2022-09-15T01:15:10.780Z,99357.97
2022-09-15T01:18:27.395Z,99359.94
2022-09-15T01:21:36.573Z,99348.88
2022-09-15T01:24:59.733Z,99351.78
2022-09-15T01:28:38.730Z,99345.84
2022-09-15T01:32:06.465Z,99338.69
2022-09-15T01:35:20.556Z,99342.72
2022-09-15T01:39:12.140Z,99339.94
2022-09-15T01:42:15.796Z,99339.94
2022-09-15T01:45:26.014Z,99335.63
2022-09-15T01:48:29.647Z,99337.34
2022-09-15T01:51:32.209Z,99340.69
2022-09-15T01:54:39.975Z,99337.19
2022-09-15T01:57:41.649Z,99343.25
2022-09-15T02:00:49.508Z,99340.69
2022-09-15T02:03:56.173Z,99346.81
2022-09-15T02:07:26.632Z,99339.91
2022-09-15T02:10:48.961Z,99350.84
2022-09-15T02:14:13.586Z,99335.41
2022-09-15T02:17:18.757Z,99335.53
2022-09-15T02:20:33.034Z,99344.41
2022-09-15T02:23:40.602Z,99335.03
2022-09-15T02:26:43.051Z,99336.59
2022-09-15T02:29:47.678Z,99339.28
2022-09-15T02:32:56.061Z,99336.59
2022-09-15T02:35:57.853Z,99327.41
2022-09-15T02:39:04.887Z,99327.16
2022-09-15T02:42:06.829Z,99328.59
2022-09-15T02:45:08.899Z,99325.47
2022-09-15T02:48:10.325Z,99325.19
2022-09-15T02:51:11.896Z,99320.75
2022-09-15T02:54:13.737Z,99320.53
2022-09-15T02:57:15.124Z,99323.59
2022-09-15T03:00:17.426Z,99325.94
2022-09-15T03:03:21.000Z,99327.88
2022-09-15T03:06:22.632Z,99331.00
2022-09-15T03:09:24.240Z,99337.06
2022-09-15T03:12:26.240Z,99331.66
2022-09-15T03:15:27.791Z,99330.53
2022-09-15T03:18:29.158Z,99329.84
2022-09-15T03:21:30.635Z,99324.09
2022-09-15T03:24:32.037Z,99324.16
2022-09-15T03:27:34.689Z,99324.16
2022-09-15T03:30:36.078Z,99326.97
2022-09-15T03:33:37.633Z,99336.28
2022-09-15T03:36:39.006Z,99333.41
2022-09-15T03:39:40.393Z,99340.59
2022-09-15T03:42:41.884Z,99341.88
2022-09-15T03:45:43.383Z,99334.00
2022-09-15T03:48:45.204Z,99338.75
2022-09-15T03:51:46.576Z,99330.47
2022-09-15T03:54:48.763Z,99332.22
2022-09-15T03:57:50.198Z,99337.72
2022-09-15T04:00:51.606Z,99339.03
2022-09-15T04:03:53.596Z,99333.81
2022-09-15T04:06:55.033Z,99327.38
2022-09-15T04:09:56.716Z,99332.56
2022-09-15T04:12:58.100Z,99325.69
2022-09-15T04:16:05.655Z,99322.66
2022-09-15T04:19:07.456Z,99325.59
2022-09-15T04:22:08.941Z,99332.44
2022-09-15T04:25:10.663Z,99331.44
2022-09-15T04:28:12.048Z,99340.00
2022-09-15T04:31:15.749Z,99340.19
2022-09-15T04:34:17.109Z,99345.28
2022-09-15T04:37:18.838Z,99343.50
2022-09-15T04:40:20.367Z,99351.66
2022-09-15T04:43:22.168Z,99350.13
2022-09-15T04:46:23.677Z,99341.16
2022-09-15T04:49:25.167Z,99349.78
2022-09-15T04:52:26.586Z,99348.97
2022-09-15T04:55:27.937Z,99349.25
2022-09-15T04:58:29.450Z,99351.78
2022-09-15T05:01:34.003Z,99355.44
2022-09-15T05:04:35.690Z,99346.94
2022-09-15T05:07:37.052Z,99345.81
2022-09-15T05:10:39.040Z,99349.09
2022-09-15T05:13:40.776Z,99357.44
2022-09-15T05:16:42.321Z,99356.88
2022-09-15T05:19:43.787Z,99364.16
2022-09-15T05:22:45.389Z,99369.09
2022-09-15T05:25:54.615Z,99387.78
2022-09-15T05:28:57.247Z,99391.06
2022-09-15T05:31:58.614Z,99395.81
2022-09-15T05:35:00.094Z,99382.34
2022-09-15T05:38:02.061Z,99375.50
2022-09-15T05:41:13.654Z,99396.47
2022-09-15T05:44:15.137Z,99404.00
2022-09-15T05:47:16.867Z,99396.38
2022-09-15T05:50:18.221Z,99392.34
2022-09-15T05:53:20.754Z,99405.19
2022-09-15T05:56:22.227Z,99404.88
2022-09-15T05:59:23.634Z,99396.50
2022-09-15T06:02:25.130Z,99403.53
2022-09-15T06:05:26.685Z,99402.69
2022-09-15T06:08:35.861Z,99409.69
2022-09-15T06:11:37.241Z,99423.53
2022-09-15T06:14:38.614Z,99425.09
2022-09-15T06:17:40.085Z,99421.19
2022-09-15T06:20:41.447Z,99418.06
2022-09-15T06:23:47.174Z,99431.63
2022-09-15T06:26:51.391Z,99426.06
2022-09-15T06:29:53.377Z,99434.84
2022-09-15T06:32:54.737Z,99442.72
2022-09-15T06:35:56.167Z,99443.00
2022-09-15T06:38:58.421Z,99446.88
2022-09-15T06:42:02.796Z,99444.56
2022-09-15T06:45:05.885Z,99445.03
2022-09-15T06:48:23.611Z,99448.41
2022-09-15T06:51:28.769Z,99451.28
2022-09-15T06:54:31.222Z,99462.84
2022-09-15T06:57:32.710Z,99474.34
2022-09-15T07:00:34.760Z,99479.50
2022-09-15T07:03:37.859Z,99485.38
2022-09-15T07:06:39.550Z,99487.19
2022-09-15T07:09:41.425Z,99499.28
2022-09-15T07:12:43.355Z,99496.38
2022-09-15T07:15:58.775Z,99497.47
2022-09-15T07:19:02.325Z,99509.81
2022-09-15T07:22:04.171Z,99519.28
2022-09-15T07:25:06.078Z,99512.81
2022-09-15T07:28:07.510Z,99529.00
2022-09-15T07:31:11.048Z,99551.13
2022-09-15T07:34:12.584Z,99527.75
2022-09-15T07:37:13.938Z,99538.72
2022-09-15T07:40:15.476Z,99556.78
2022-09-15T07:43:17.012Z,99551.78
2022-09-15T07:46:20.145Z,99557.38
2022-09-15T07:49:21.504Z,99556.41
2022-09-15T07:52:22.965Z,99567.03
2022-09-15T07:55:24.645Z,99564.81
2022-09-15T07:58:25.997Z,99560.78
2022-09-15T08:01:27.543Z,99567.41
2022-09-15T08:04:29.058Z,99578.16
2022-09-15T08:07:30.601Z,99581.75
2022-09-15T08:10:32.512Z,99581.00
2022-09-15T08:13:34.346Z,99579.28
2022-09-15T08:16:35.878Z,99573.66
2022-09-15T08:19:37.348Z,99581.75
2022-09-15T08:22:39.737Z,99574.34
2022-09-15T08:25:41.104Z,99579.84
2022-09-15T08:28:42.707Z,99588.78
2022-09-15T08:31:45.309Z,99591.72
2022-09-15T08:34:46.809Z,99590.69
2022-09-15T08:37:48.178Z,99592.38
2022-09-15T08:40:49.605Z,99600.06
2022-09-15T08:43:57.942Z,99596.84
2022-09-15T08:47:27.594Z,99607.09
2022-09-15T08:50:35.184Z,99612.19
2022-09-15T08:53:45.507Z,99617.06
2022-09-15T08:56:48.492Z,99620.69
2022-09-15T08:59:49.890Z,99623.13
2022-09-15T09:02:59.974Z,99618.34
2022-09-15T09:06:27.231Z,99627.66
2022-09-15T09:09:42.646Z,99626.56
2022-09-15T09:13:03.618Z,99628.03
2022-09-15T09:16:29.056Z,99626.88
2022-09-15T09:19:41.145Z,99627.03
2022-09-15T09:22:45.863Z,99629.09
2022-09-15T09:25:49.636Z,99626.28
2022-09-15T09:29:01.661Z,99630.91
2022-09-15T09:32:04.234Z,99637.25
2022-09-15T09:35:28.633Z,99638.44
2022-09-15T09:38:39.707Z,99649.91
2022-09-15T09:41:42.057Z,99647.75
2022-09-15T09:44:44.122Z,99658.28
2022-09-15T09:47:48.712Z,99660.00
2022-09-15T09:50:50.731Z,99664.34
2022-09-15T09:53:53.884Z,99668.50
2022-09-15T09:57:16.665Z,99676.03
2022-09-15T10:00:35.795Z,99674.09
2022-09-15T10:03:38.673Z,99673.59
2022-09-15T10:06:41.284Z,99672.34
2022-09-15T10:09:50.333Z,99666.34
2022-09-15T10:12:56.320Z,99667.47
2022-09-15T10:16:00.999Z,99670.84
2022-09-15T10:19:02.671Z,99669.47
2022-09-15T10:22:04.808Z,99663.47
2022-09-15T10:25:21.356Z,99666.66
2022-09-15T10:28:26.022Z,99671.84
2022-09-15T10:31:31.488Z,99682.41
2022-09-15T10:34:33.027Z,99673.28
2022-09-15T10:37:43.811Z,99668.03
2022-09-15T10:40:47.876Z,99671.69
2022-09-15T10:44:20.718Z,99672.97
2022-09-15T10:47:24.979Z,99672.88
2022-09-15T10:50:31.012Z,99682.53
2022-09-15T10:53:47.544Z,99675.34
2022-09-15T10:56:52.004Z,99694.91
2022-09-15T11:00:04.249Z,99688.53
2022-09-15T11:03:22.406Z,99684.28
2022-09-15T11:06:41.633Z,99687.41
2022-09-15T11:09:47.317Z,99690.66
2022-09-15T11:12:57.446Z,99686.53
2022-09-15T11:16:10.501Z,99680.91
2022-09-15T11:19:17.964Z,99690.28
2022-09-15T11:22:37.980Z,99692.34
2022-09-15T11:25:46.902Z,99694.56
2022-09-15T11:28:55.688Z,99700.94
2022-09-15T11:32:04.571Z,99693.63
2022-09-15T11:35:36.949Z,99701.44
2022-09-15T11:38:47.958Z,99707.00
2022-09-15T11:42:11.567Z,99715.75
2022-09-15T11:45:19.931Z,99704.13
2022-09-15T11:48:30.992Z,99709.94
2022-09-15T11:51:38.484Z,99709.94
2022-09-15T11:54:46.428Z,99709.66
2022-09-15T11:57:51.576Z,99705.53
2022-09-15T12:00:57.206Z,99717.59
2022-09-15T12:04:03.007Z,99725.97
2022-09-15T12:07:14.671Z,99728.53
2022-09-15T12:10:25.910Z,99729.38
2022-09-15T12:13:28.082Z,99730.56
2022-09-15T12:16:30.260Z,99734.72
2022-09-15T12:19:50.680Z,99730.91
2022-09-15T12:23:06.985Z,99726.56
2022-09-15T12:26:23.281Z,99726.88
2022-09-15T12:29:27.340Z,99726.28
2022-09-15T12:32:34.798Z,99730.81
2022-09-15T12:35:36.156Z,99734.16
2022-09-15T12:38:37.558Z,99728.94
2022-09-15T12:41:47.308Z,99731.41
2022-09-15T12:45:02.157Z,99723.56
2022-09-15T12:48:20.232Z,99727.88
2022-09-15T12:51:25.205Z,99719.25
2022-09-15T12:54:30.923Z,99717.75
2022-09-15T12:57:35.577Z,99720.25
2022-09-15T13:00:45.535Z,99723.03
2022-09-15T13:03:59.479Z,99709.03
2022-09-15T13:07:16.082Z,99718.53
2022-09-15T13:10:27.814Z,99713.00
2022-09-15T13:13:46.136Z,99716.28
2022-09-15T13:16:50.477Z,99716.91
2022-09-15T13:19:59.934Z,99718.28
2022-09-15T13:23:03.577Z,99719.06
2022-09-15T13:26:11.001Z,99715.47
2022-09-15T13:29:15.503Z,99722.66
2022-09-15T13:32:35.616Z,99724.25
2022-09-15T13:35:52.398Z,99725.38
2022-09-15T13:39:31.690Z,99719.44
2022-09-15T13:43:04.932Z,99722.78
2022-09-15T13:46:33.152Z,99718.66
2022-09-15T13:50:19.740Z,99713.19
2022-09-15T13:53:44.621Z,99719.41
2022-09-15T13:56:53.009Z,99725.09
2022-09-15T13:59:54.921Z,99712.75
2022-09-15T14:03:02.752Z,99718.53
2022-09-15T14:06:14.238Z,99716.56
2022-09-15T14:09:20.024Z,99719.25
2022-09-15T14:12:21.530Z,99713.19
2022-09-15T14:15:25.438Z,99718.94
2022-09-15T14:18:28.281Z,99723.56
2022-09-15T14:21:34.463Z,99715.09
2022-09-15T14:24:40.143Z,99715.03
2022-09-15T14:27:45.475Z,99714.72
2022-09-15T14:30:48.449Z,99718.47
2022-09-15T14:33:49.870Z,99726.03
2022-09-15T14:37:23.745Z,99732.41
2022-09-15T14:40:35.306Z,99724.41
2022-09-15T14:43:41.936Z,99733.56
2022-09-15T14:46:43.452Z,99732.13
2022-09-15T14:49:44.943Z,99728.47
2022-09-15T14:52:58.121Z,99729.19
2022-09-15T14:56:22.216Z,99733.31
2022-09-15T14:59:32.743Z,99727.28
2022-09-15T15:02:59.061Z,99724.41
2022-09-15T15:06:34.603Z,99722.44
2022-09-15T15:09:44.886Z,99718.47
2022-09-15T15:12:50.594Z,99717.13
2022-09-15T15:15:52.805Z,99722.34
2022-09-15T15:18:56.934Z,99716.31
2022-09-15T15:22:26.986Z,99723.50
2022-09-15T15:25:32.298Z,99720.88
2022-09-15T15:28:35.920Z,99721.09
2022-09-15T15:31:39.920Z,99720.31
2022-09-15T15:34:49.313Z,99719.72
2022-09-15T15:38:02.212Z,99722.41
2022-09-15T15:41:06.340Z,99720.44
2022-09-15T15:44:26.468Z,99727.75
2022-09-15T15:47:31.320Z,99726.56
2022-09-15T15:50:32.746Z,99730.94
2022-09-15T15:53:34.345Z,99726.28
2022-09-15T15:56:37.972Z,99725.47
2022-09-15T15:59:39.541Z,99731.75
2022-09-15T16:02:41.020Z,99733.09
2022-09-15T16:05:45.953Z,99732.81
2022-09-15T16:08:47.486Z,99734.03
2022-09-15T16:11:49.072Z,99727.75
2022-09-15T16:14:50.508Z,99733.25
2022-09-15T16:17:51.869Z,99733.75
2022-09-15T16:20:53.783Z,99734.03
2022-09-15T16:23:55.181Z,99733.91
2022-09-15T16:26:56.565Z,99731.22
2022-09-15T16:29:57.996Z,99746.16
2022-09-15T16:32:59.714Z,99745.19
2022-09-15T16:36:06.707Z,99754.66
2022-09-15T16:39:08.216Z,99760.00
2022-09-15T16:42:10.636Z,99757.69
2022-09-15T16:45:20.315Z,99762.47
2022-09-15T16:48:21.755Z,99765.63
2022-09-15T16:51:29.979Z,99765.28
2022-09-15T16:54:33.292Z,99766.19
2022-09-15T16:57:34.647Z,99762.19
2022-09-15T17:00:37.485Z,99764.59
2022-09-15T17:03:39.290Z,99768.84
2022-09-15T17:06:40.726Z,99768.84
2022-09-15T17:09:42.238Z,99769.44
2022-09-15T17:12:44.043Z,99766.91
2022-09-15T17:15:46.709Z,99771.66
2022-09-15T17:18:48.284Z,99775.44
2022-09-15T17:21:50.205Z,99775.09
2022-09-15T17:24:51.585Z,99775.22
2022-09-15T17:27:53.795Z,99780.81
2022-09-15T17:31:00.183Z,99785.56
2022-09-15T17:34:02.146Z,99781.31
2022-09-15T17:37:03.558Z,99789.69
2022-09-15T17:40:05.386Z,99783.75
2022-09-15T17:43:15.262Z,99785.47
2022-09-15T17:46:16.813Z,99783.88
2022-09-15T17:49:18.299Z,99776.22
2022-09-15T17:52:19.855Z,99771.38
2022-09-15T17:55:26.720Z,99773.59
2022-09-15T17:58:29.867Z,99770.03
2022-09-15T18:01:31.309Z,99766.91
2022-09-15T18:04:33.067Z,99775.03
2022-09-15T18:07:34.721Z,99787.69
2022-09-15T18:10:36.455Z,99781.09
2022-09-15T18:13:37.864Z,99793.22
2022-09-15T18:16:39.605Z,99795.16
2022-09-15T18:19:40.984Z,99792.84
2022-09-15T18:22:43.523Z,99794.28
2022-09-15T18:25:46.942Z,99790.50
2022-09-15T18:28:48.310Z,99785.38
2022-09-15T18:31:49.672Z,99792.69
2022-09-15T18:34:51.044Z,99790.22
2022-09-15T18:37:57.739Z,99795.06
2022-09-15T18:41:00.109Z,99794.53
2022-09-15T18:44:01.708Z,99804.47
2022-09-15T18:47:03.112Z,99807.28
2022-09-15T18:50:06.513Z,99811.81
2022-09-15T18:53:08.200Z,99811.66
2022-09-15T18:56:11.113Z,99821.19
2022-09-15T18:59:15.528Z,99817.66
2022-09-15T19:02:19.324Z,99825.66
2022-09-15T19:05:20.801Z,99824.50
2022-09-15T19:08:22.975Z,99826.41
2022-09-15T19:11:25.930Z,99833.81
2022-09-15T19:14:29.074Z,99839.53
2022-09-15T19:17:30.871Z,99844.66
2022-09-15T19:20:32.262Z,99842.94
2022-09-15T19:23:35.495Z,99835.81
2022-09-15T19:26:37.256Z,99838.97
2022-09-15T19:29:39.005Z,99843.84
2022-09-15T19:32:41.030Z,99842.59
2022-09-15T19:35:42.883Z,99839.34
2022-09-15T19:38:44.412Z,99841.72
2022-09-15T19:41:46.310Z,99852.59
2022-09-15T19:44:49.285Z,99845.25
2022-09-15T19:47:50.668Z,99850.03
2022-09-15T19:50:52.081Z,99840.97
2022-09-15T19:53:55.607Z,99844.94
2022-09-15T19:56:57.641Z,99843.78
2022-09-15T19:59:59.019Z,99846.22
2022-09-15T20:03:00.384Z,99850.69
2022-09-15T20:06:05.973Z,99848.25
2022-09-15T20:09:08.101Z,99844.38
2022-09-15T20:12:09.522Z,99851.94
2022-09-15T20:15:11.395Z,99853.03
2022-09-15T20:18:13.328Z,99858.13
2022-09-15T20:21:32.522Z,99857.09
2022-09-15T20:24:40.476Z,99857.59
2022-09-15T20:27:42.592Z,99861.03
2022-09-15T20:30:44.000Z,99861.13
2022-09-15T20:33:47.116Z,99860.81
2022-09-15T20:36:48.859Z,99859.44
2022-09-15T20:39:51.343Z,99859.09
2022-09-15T20:42:52.812Z,99863.38
2022-09-15T20:46:03.003Z,99870.06
2022-09-15T20:49:04.916Z,99866.03
2022-09-15T20:52:06.331Z,99868.47
2022-09-15T20:55:08.256Z,99879.19
2022-09-15T20:58:10.837Z,99879.41
2022-09-15T21:01:17.967Z,99883.00
2022-09-15T21:04:19.706Z,99878.56
2022-09-15T21:07:21.138Z,99876.16
2022-09-15T21:10:24.301Z,99885.59
2022-09-15T21:13:29.250Z,99889.19
2022-09-15T21:16:31.174Z,99891.13
2022-09-15T21:19:32.589Z,99887.53
2022-09-15T21:22:34.169Z,99890.31
2022-09-15T21:25:35.586Z,99893.50
2022-09-15T21:28:38.475Z,99896.91
2022-09-15T21:31:39.872Z,99894.56
2022-09-15T21:34:41.261Z,99900.53
2022-09-15T21:37:42.757Z,99893.28
2022-09-15T21:40:48.368Z,99904.78
2022-09-15T21:43:55.457Z,99904.22
2022-09-15T21:46:57.336Z,99915.41
2022-09-15T21:49:59.986Z,99908.53
2022-09-15T21:53:01.581Z,99911.38
2022-09-15T21:56:05.076Z,99908.72
2022-09-15T21:59:08.888Z,99916.94
2022-09-15T22:02:11.487Z,99907.53
2022-09-15T22:05:13.037Z,99907.84
2022-09-15T22:08:16.129Z,99914.13
2022-09-15T22:11:17.495Z,99912.47
2022-09-15T22:14:18.935Z,99906.69
2022-09-15T22:17:21.410Z,99915.19
2022-09-15T22:20:23.170Z,99915.22
2022-09-15T22:23:24.780Z,99907.28
2022-09-15T22:26:29.746Z,99913.00
2022-09-15T22:29:31.220Z,99909.19
2022-09-15T22:32:32.685Z,99920.47
2022-09-15T22:35:34.044Z,99917.16
2022-09-15T22:38:35.739Z,99919.03
2022-09-15T22:41:38.709Z,99923.72
2022-09-15T22:44:40.085Z,99926.94
2022-09-15T22:47:41.629Z,99923.75
2022-09-15T22:50:46.131Z,99923.97
2022-09-15T22:53:48.001Z,99930.78
2022-09-15T22:56:49.390Z,99918.69
2022-09-15T22:59:50.740Z,99921.72
2022-09-15T23:02:52.442Z,99917.25
2022-09-15T23:05:58.210Z,99915.34
2022-09-15T23:09:03.268Z,99920.47
2022-09-15T23:12:05.027Z,99923.44
2022-09-15T23:15:07.161Z,99924.47
2022-09-15T23:18:08.602Z,99929.06
2022-09-15T23:21:11.753Z,99936.88
2022-09-15T23:24:13.824Z,99925.78
2022-09-15T23:27:15.262Z,99932.38
2022-09-15T23:30:16.788Z,99920.47
2022-09-15T23:33:18.687Z,99930.28
2022-09-15T23:36:20.136Z,99931.25
2022-09-15T23:39:21.589Z,99929.72
2022-09-15T23:42:22.973Z,99933.50
2022-09-15T23:45:24.409Z,99939.44
2022-09-15T23:48:26.641Z,99936.13
2022-09-15T23:51:28.171Z,99925.78
2022-09-15T23:54:29.574Z,99935.13
2022-09-15T23:57:31.189Z,99937.19
